Bowie, TX (76230)

1:11 PM CDT on September 01, 2015 (GMT -0500)
K5EAG - Bill Miller - Bowie, Texas | | Change Station
CLOSE
Current Station
Personal Weather Station
Location: Bowie, TX
Elevation: 1142 ft
Nearby Weather Stations

Elev 1142 ft 33.56 °N, 97.84 °W | Updated 24 seconds ago

Clear
Clear
91.2 °F
Feels Like 95 °F
N
0.4
Wind Variable Wind from ENE
Gusts 2.5 mph

Today
High -- | Low -- °F
--% Chance of Precip.
Yesterday
High -- | Low -- °F
Precip. -- in
7:05 AM 7:57 PM
Waning Gibbous, 87% visible
Pressure 30.03 in
Visibility 10.0 miles
Clouds Clear
Heat Index 95 °F
Dew Point 67 °F
Humidity 45%
Rainfall 0.00 in
Snow Depth Not available.
UV 7.0 out of 12
Pollen 9.60 out of 12
Air Quality Not available.
Flu Activity Not available.
METAR K0F2 011755Z AUTO 15008KT 10SM CLR 32/16 A3003 RMK AO2 T03240161 10324 20202
Pressure 30.03 in
Visibility 10.0 miles
Clouds Clear
Heat Index 95 °F
Dew Point 67 °F
Humidity 45%
Rainfall 0.00 in
Snow Depth Not available.
UV 7.0 out of 12
Pollen 9.60 out of 12
Air Quality Not available.
Flu Activity Not available.
METAR K0F2 011755Z AUTO 15008KT 10SM CLR 32/16 A3003 RMK AO2 T03240161 10324 20202
Nowcast | as of 12:39 PM CDT on September 1, 2015

Scattered showers and thunderstorms will affect areas southeast of a Temple to Jacksonville line through 3 PM. Brief heavy rain and cloud to ground lightning will accompany some of these storms as they move north at 15 to 20 mph. Otherwise...expect mostly sunny skies with temperatures warming into the low to mid 90s by 4 PM.

×

10-Day Weather Forecast

×

Almanac

Astronomy

Sep. 01, 2015 Rise Set
Actual Time
Civil Twilight
Nautical Twilight
Astronomical Twilight
Moon
Length of Visible Light
Length of Day
Tomorrow will be .
, % of the Moon is Illuminated

Today's Extremes

State Highs State Lows

Community

WunderPhotos

Upload Photos

1,851,592 photos uploaded!

WunderBlogs® & News

Nearby

Air Quality

  Air Quality AQ Index Pollutant
Not available.

Snow Depth

Station Depth Elevation

Earthquake Activity

City Distance Mag. Time & Date
Minimum magnitude displayed is 2.5.

Coastal Water Temperatures

Place Temperature

Stations

Nearby Weather Stations

Station Location Temp. Windchill Dew Point Humidity Wind Precip. Elev Updated Type